Cross City, FL (32628)

6:33 AM EDT on August 31, 2015 (GMT -0400)
Dixie County High School WeatherSTEM | | Change Station
CLOSE
Current Station
Personal Weather Station
Location: Cross City, FL
Elevation: 88 ft
Nearby Weather Stations

Elev 88 ft 29.64 °N, 83.13 °W | Updated 13 minutes ago

Mostly Cloudy
Mostly Cloudy
73.4 °F
Feels Like 73.4 °F
N
2.0
Wind Variable Wind from North
Gusts 3.0 mph

Today
High -- | Low -- °F
--% Chance of Precip.
Yesterday
High -- | Low -- °F
Precip. -- in
7:09 AM 7:56 PM
Waning Gibbous, 96% visible
Pressure 30.01 in
Visibility 1.5 miles
Clouds Overcast 300 ft
Dew Point 73 °F
Humidity 97%
Rainfall 0.00 in
Snow Depth Not available.
UV 0.0 out of 12
Pollen 6.50 out of 12
Air Quality Not available.
Flu Activity Not available.
METAR KLCQ 311015Z AUTO 00000KT 1 1/2SM BR OVC003 22/22 A3001 RMK AO2 LTG DSNT NE
Pressure 30.01 in
Visibility 1.5 miles
Clouds Overcast 300 ft
Dew Point 73 °F
Humidity 97%
Rainfall 0.00 in
Snow Depth Not available.
UV 0.0 out of 12
Pollen 6.50 out of 12
Air Quality Not available.
Flu Activity Not available.
METAR KLCQ 311015Z AUTO 00000KT 1 1/2SM BR OVC003 22/22 A3001 RMK AO2 LTG DSNT NE

10-Day Weather Forecast

×

Almanac

Astronomy

Aug. 31, 2015 Rise Set
Actual Time
Civil Twilight
Nautical Twilight
Astronomical Twilight
Moon
Length of Visible Light
Length of Day
Tomorrow will be .
, % of the Moon is Illuminated

Today's Extremes

State Highs State Lows

Community

WunderPhotos

Upload Photos

1,851,229 photos uploaded!

WunderBlogs® & News

Nearby

Air Quality

  Air Quality AQ Index Pollutant
Not available.

Snow Depth

Station Depth Elevation

Earthquake Activity

City Distance Mag. Time & Date
Minimum magnitude displayed is 2.5.

Coastal Water Temperatures

Place Temperature

Stations

Nearby Weather Stations

Station Location Temp. Windchill Dew Point Humidity Wind Precip. Elev Updated Type